createdAt,value
2022-09-01T00:01:53.566Z,101970.06
2022-09-01T00:04:23.259Z,101969.09
2022-09-01T00:06:50.123Z,101975.47
2022-09-01T00:09:19.822Z,101972.19
2022-09-01T00:11:50.483Z,101968.00
2022-09-01T00:14:30.068Z,101977.63
2022-09-01T00:17:02.782Z,101974.94
2022-09-01T00:19:29.840Z,101974.00
2022-09-01T00:21:56.945Z,101977.28
2022-09-01T00:24:26.340Z,101973.72
2022-09-01T00:26:54.395Z,101970.28
2022-09-01T00:29:21.115Z,101975.81
2022-09-01T00:31:48.063Z,101982.50
2022-09-01T00:34:15.387Z,101972.19
2022-09-01T00:36:42.109Z,101967.50
2022-09-01T00:39:09.017Z,101969.53
2022-09-01T00:41:40.066Z,101969.66
2022-09-01T00:44:12.081Z,101968.53
2022-09-01T00:46:47.683Z,101965.25
2022-09-01T00:49:24.428Z,101960.63
2022-09-01T00:51:57.518Z,101966.75
2022-09-01T00:54:27.131Z,101958.31
2022-09-01T00:56:57.976Z,101967.19
2022-09-01T00:59:26.168Z,101962.47
2022-09-01T01:01:53.654Z,101967.66
2022-09-01T01:04:20.840Z,101970.22
2022-09-01T01:06:58.763Z,101969.53
2022-09-01T01:09:27.164Z,101961.81
2022-09-01T01:11:54.223Z,101964.38
2022-09-01T01:14:20.998Z,101962.31
2022-09-01T01:16:52.408Z,101962.25
2022-09-01T01:19:43.844Z,101956.09
2022-09-01T01:22:34.321Z,101962.84
2022-09-01T01:25:02.317Z,101958.66
2022-09-01T01:27:38.064Z,101971.88
2022-09-01T01:30:12.830Z,101966.47
2022-09-01T01:32:43.337Z,101959.28
2022-09-01T01:35:15.027Z,101959.34
2022-09-01T01:37:49.253Z,101960.38
2022-09-01T01:40:22.993Z,101968.34
2022-09-01T01:42:52.078Z,101961.69
2022-09-01T01:45:21.687Z,101968.81
2022-09-01T01:47:56.799Z,101964.09
2022-09-01T01:50:36.034Z,101961.22
2022-09-01T01:53:10.967Z,101967.38
2022-09-01T01:55:40.713Z,101965.47
2022-09-01T01:58:08.343Z,101967.25
2022-09-01T02:00:35.224Z,101959.28
2022-09-01T02:03:03.371Z,101965.69
2022-09-01T02:05:34.923Z,101958.47
2022-09-01T02:08:08.159Z,101956.94
2022-09-01T02:10:44.354Z,101964.91
2022-09-01T02:13:16.559Z,101966.78
2022-09-01T02:15:47.154Z,101966.22
2022-09-01T02:18:28.075Z,101962.63
2022-09-01T02:20:59.128Z,101956.47
2022-09-01T02:23:25.950Z,101959.34
2022-09-01T02:26:15.728Z,101963.06
2022-09-01T02:28:45.512Z,101957.66
2022-09-01T02:31:12.679Z,101957.38
2022-09-01T02:33:40.999Z,101966.97
2022-09-01T02:36:14.067Z,101954.28
2022-09-01T02:38:46.852Z,101957.72
2022-09-01T02:41:23.259Z,101952.56
2022-09-01T02:43:56.033Z,101961.50
2022-09-01T02:46:24.669Z,101955.31
2022-09-01T02:48:52.807Z,101957.13
2022-09-01T02:51:22.754Z,101957.38
2022-09-01T02:53:52.930Z,101954.78
2022-09-01T02:56:25.738Z,101952.22
2022-09-01T02:58:54.274Z,101948.88
2022-09-01T03:01:25.809Z,101949.78
2022-09-01T03:03:55.603Z,101949.09
2022-09-01T03:06:24.565Z,101956.53
2022-09-01T03:08:59.807Z,101945.06
2022-09-01T03:11:28.090Z,101954.31
2022-09-01T03:13:56.862Z,101951.75
2022-09-01T03:16:23.710Z,101952.84
2022-09-01T03:18:51.941Z,101947.56
2022-09-01T03:21:20.359Z,101955.81
2022-09-01T03:23:50.011Z,101946.16
2022-09-01T03:26:19.510Z,101947.94
2022-09-01T03:28:46.580Z,101951.78
2022-09-01T03:31:14.501Z,101945.63
2022-09-01T03:33:42.392Z,101943.25
2022-09-01T03:36:22.274Z,101951.50
2022-09-01T03:38:49.979Z,101950.91
2022-09-01T03:41:21.758Z,101950.31
2022-09-01T03:43:49.169Z,101948.72
2022-09-01T03:46:21.884Z,101950.00
2022-09-01T03:48:55.959Z,101950.19
2022-09-01T03:51:23.594Z,101945.19
2022-09-01T03:53:54.638Z,101947.97
2022-09-01T03:56:24.262Z,101948.47
2022-09-01T03:58:52.202Z,101951.34
2022-09-01T04:01:19.569Z,101947.97
2022-09-01T04:03:51.048Z,101938.63
2022-09-01T04:06:24.285Z,101939.53
2022-09-01T04:08:56.989Z,101940.63
2022-09-01T04:11:25.430Z,101932.81
2022-09-01T04:13:53.159Z,101941.75
2022-09-01T04:16:44.780Z,101942.97
2022-09-01T04:19:25.782Z,101945.84
2022-09-01T04:22:01.304Z,101946.19
2022-09-01T04:24:36.001Z,101935.66
2022-09-01T04:27:03.644Z,101939.41
2022-09-01T04:29:32.056Z,101943.91
2022-09-01T04:32:03.895Z,101945.00
2022-09-01T04:34:37.631Z,101945.22
2022-09-01T04:37:13.366Z,101951.88
2022-09-01T04:39:53.689Z,101953.75
2022-09-01T04:42:24.326Z,101953.00
2022-09-01T04:44:53.729Z,101954.00
2022-09-01T04:47:35.566Z,101954.94
2022-09-01T04:50:14.517Z,101947.03
2022-09-01T04:52:46.073Z,101954.16
2022-09-01T04:55:29.931Z,101956.91
2022-09-01T04:57:59.244Z,101950.78
2022-09-01T05:00:28.037Z,101956.09
2022-09-01T05:03:03.170Z,101958.06
2022-09-01T05:05:45.402Z,101959.88
2022-09-01T05:08:23.451Z,101951.81
2022-09-01T05:10:55.919Z,101955.47
2022-09-01T05:13:39.724Z,101958.13
2022-09-01T05:16:13.362Z,101963.59
2022-09-01T05:18:49.095Z,101955.63
2022-09-01T05:21:20.127Z,101960.94
2022-09-01T05:23:47.945Z,101961.00
2022-09-01T05:26:19.277Z,101956.34
2022-09-01T05:28:53.903Z,101955.28
2022-09-01T05:31:21.534Z,101949.78
2022-09-01T05:33:51.090Z,101952.47
2022-09-01T05:36:20.370Z,101954.97
2022-09-01T05:38:48.296Z,101955.75
2022-09-01T05:41:17.544Z,101950.31
2022-09-01T05:43:46.699Z,101960.91
2022-09-01T05:46:17.162Z,101950.31
2022-09-01T05:48:45.523Z,101962.50
2022-09-01T05:51:42.841Z,101965.00
2022-09-01T05:54:09.477Z,101965.56
2022-09-01T05:56:43.706Z,101960.13
2022-09-01T05:59:23.315Z,101952.78
2022-09-01T06:01:53.655Z,101961.44
2022-09-01T06:04:25.841Z,101957.66
2022-09-01T06:07:05.326Z,101954.75
2022-09-01T06:09:43.082Z,101954.56
2022-09-01T06:12:23.263Z,101958.84
2022-09-01T06:14:51.839Z,101957.25
2022-09-01T06:17:25.183Z,101963.97
2022-09-01T06:19:55.829Z,101965.97
2022-09-01T06:22:24.141Z,101973.34
2022-09-01T06:24:56.893Z,101968.91
2022-09-01T06:27:28.344Z,101977.63
2022-09-01T06:29:56.380Z,101973.72
2022-09-01T06:32:26.075Z,101986.66
2022-09-01T06:34:54.810Z,101989.97
2022-09-01T06:37:23.133Z,101986.59
2022-09-01T06:39:53.218Z,101981.03
2022-09-01T06:42:20.477Z,101982.75
2022-09-01T06:44:53.092Z,101980.22
2022-09-01T06:47:20.186Z,101977.63
2022-09-01T06:49:46.935Z,101979.31
2022-09-01T06:52:23.741Z,101984.63
2022-09-01T06:54:53.423Z,101976.88
2022-09-01T07:00:21.173Z,101981.13
2022-09-01T07:02:56.508Z,101984.69
2022-09-01T07:09:20.229Z,101985.31
2022-09-01T07:12:24.871Z,101985.84
2022-09-01T07:17:50.311Z,101986.81
2022-09-01T07:20:29.389Z,101989.31
2022-09-01T07:23:06.442Z,101992.31
2022-09-01T07:28:39.992Z,101989.47
2022-09-01T07:39:49.168Z,101977.03
2022-09-01T07:45:48.082Z,101981.25
2022-09-01T07:48:36.742Z,101981.13
2022-09-01T07:51:37.187Z,101986.59
2022-09-01T07:54:06.015Z,101987.50
2022-09-01T07:56:39.455Z,101978.72
2022-09-01T07:59:08.359Z,101978.63
2022-09-01T08:01:38.114Z,101984.03
2022-09-01T08:04:05.025Z,101985.81
2022-09-01T08:06:39.318Z,101986.50
2022-09-01T08:09:11.493Z,101983.03
2022-09-01T08:14:25.955Z,101991.50
2022-09-01T08:16:53.223Z,101991.44
2022-09-01T08:19:20.557Z,101991.22
2022-09-01T08:22:10.253Z,101986.94
2022-09-01T08:24:51.603Z,101988.75
2022-09-01T08:27:18.856Z,101984.44
2022-09-01T08:29:45.731Z,101979.13
2022-09-01T08:32:13.382Z,101980.06
2022-09-01T08:34:40.352Z,101987.00
2022-09-01T08:37:07.600Z,101989.56
2022-09-01T08:39:35.479Z,101985.44
2022-09-01T08:42:20.096Z,101993.78
2022-09-01T08:44:47.423Z,101980.31
2022-09-01T08:47:17.236Z,101976.59
2022-09-01T08:49:47.302Z,101988.50
2022-09-01T08:52:31.327Z,101982.16
2022-09-01T08:55:27.788Z,101983.03
2022-09-01T08:57:59.746Z,101989.16
2022-09-01T09:00:33.353Z,101984.91
2022-09-01T09:03:40.565Z,101971.63
2022-09-01T09:06:26.144Z,101975.19
2022-09-01T09:08:58.095Z,101973.47
2022-09-01T09:11:50.459Z,101977.53
2022-09-01T09:14:20.458Z,101986.28
2022-09-01T09:16:51.565Z,101983.34
2022-09-01T09:19:30.993Z,101976.47
2022-09-01T09:22:00.745Z,101972.97
2022-09-01T09:25:03.896Z,101974.25
2022-09-01T09:27:36.823Z,101973.03
2022-09-01T09:30:31.569Z,101976.13
2022-09-01T09:35:55.032Z,101975.03
2022-09-01T09:38:29.373Z,101967.84
2022-09-01T09:41:17.017Z,101967.94
2022-09-01T09:44:04.656Z,101964.44
2022-09-01T09:46:36.576Z,101959.97
2022-09-01T09:49:35.132Z,101960.75
2022-09-01T09:52:10.310Z,101961.13
2022-09-01T09:54:57.599Z,101969.38
2022-09-01T09:57:24.727Z,101956.06
2022-09-01T10:00:01.446Z,101963.09
2022-09-01T10:02:33.339Z,101958.56
2022-09-01T10:05:41.724Z,101961.91
2022-09-01T10:08:34.971Z,101967.94
2022-09-01T10:11:02.283Z,101959.69
2022-09-01T10:13:33.115Z,101966.50
2022-09-01T10:16:03.767Z,101962.59
2022-09-01T10:18:45.248Z,101956.97
2022-09-01T10:21:17.699Z,101952.19
2022-09-01T10:23:44.822Z,101944.41
2022-09-01T10:26:18.875Z,101941.94
2022-09-01T10:28:56.888Z,101951.03
2022-09-01T10:31:29.526Z,101947.72
2022-09-01T10:34:02.877Z,101950.97
2022-09-01T10:36:33.796Z,101946.31
2022-09-01T10:39:06.208Z,101942.53
2022-09-01T10:42:07.753Z,101944.50
2022-09-01T10:44:36.569Z,101947.09
2022-09-01T10:47:30.279Z,101950.66
2022-09-01T10:50:00.144Z,101954.50
2022-09-01T10:52:43.907Z,101955.88
2022-09-01T10:55:24.746Z,101950.47
2022-09-01T10:57:56.140Z,101940.00
2022-09-01T11:00:38.993Z,101951.19
2022-09-01T11:06:13.024Z,101937.84
2022-09-01T11:08:59.259Z,101937.84
2022-09-01T11:11:41.794Z,101940.75
2022-09-01T11:14:23.345Z,101933.78
2022-09-01T11:17:13.576Z,101943.97
2022-09-01T11:19:55.715Z,101932.28
2022-09-01T11:22:32.770Z,101929.41
2022-09-01T11:25:41.292Z,101933.00
2022-09-01T11:28:10.821Z,101922.53
2022-09-01T11:30:53.127Z,101928.91
2022-09-01T11:33:32.230Z,101938.06
2022-09-01T11:36:12.480Z,101941.94
2022-09-01T11:39:14.651Z,101937.44
2022-09-01T11:41:55.740Z,101935.19
2022-09-01T11:44:42.572Z,101935.66
2022-09-01T11:47:40.766Z,101934.56
2022-09-01T11:50:16.593Z,101934.44
2022-09-01T11:52:43.666Z,101929.84
2022-09-01T11:55:10.719Z,101925.13
2022-09-01T11:57:40.405Z,101932.56
2022-09-01T12:00:13.462Z,101929.59
2022-09-01T12:02:46.373Z,101929.50
2022-09-01T12:05:35.598Z,101936.50
2022-09-01T12:08:04.666Z,101930.25
2022-09-01T12:10:38.653Z,101932.53
2022-09-01T12:13:12.344Z,101926.25
2022-09-01T12:16:13.957Z,101930.88
2022-09-01T12:18:31.896Z,101920.91
2022-09-01T12:21:02.287Z,101923.41
2022-09-01T12:23:34.367Z,101929.16
2022-09-01T12:26:03.679Z,101924.41
2022-09-01T12:28:31.882Z,101928.81
2022-09-01T12:31:09.312Z,101920.75
2022-09-01T12:33:36.717Z,101919.88
2022-09-01T12:36:26.283Z,101914.38
2022-09-01T12:38:55.143Z,101912.44
2022-09-01T12:41:24.919Z,101917.22
2022-09-01T12:43:54.658Z,101918.34
2022-09-01T12:46:44.884Z,101919.63
2022-09-01T12:49:20.119Z,101921.94
2022-09-01T12:51:48.713Z,101909.06
2022-09-01T12:54:16.232Z,101910.94
2022-09-01T12:56:48.653Z,101910.06
2022-09-01T12:59:36.127Z,101916.81
2022-09-01T13:02:27.464Z,101912.13
2022-09-01T13:04:54.330Z,101915.16
2022-09-01T13:07:21.239Z,101908.56
2022-09-01T13:09:48.063Z,101907.03
2022-09-01T13:12:21.544Z,101911.59
2022-09-01T13:14:48.309Z,101911.81
2022-09-01T13:17:15.198Z,101901.72
2022-09-01T13:19:42.451Z,101905.34
2022-09-01T13:22:09.339Z,101893.00
2022-09-01T13:24:36.099Z,101892.25
2022-09-01T13:29:50.516Z,101896.59
2022-09-01T13:32:20.862Z,101890.00
2022-09-01T13:34:52.717Z,101898.72
2022-09-01T13:37:20.992Z,101894.50
2022-09-01T13:39:48.665Z,101889.75
2022-09-01T13:42:16.137Z,101891.84
2022-09-01T13:44:44.660Z,101886.31
2022-09-01T13:50:09.906Z,101878.63
2022-09-01T13:52:38.756Z,101870.53
2022-09-01T13:55:06.784Z,101878.75
2022-09-01T13:57:36.626Z,101881.09
2022-09-01T14:00:06.684Z,101875.78
2022-09-01T14:02:39.250Z,101870.88
2022-09-01T14:05:07.197Z,101864.34
2022-09-01T14:07:34.262Z,101871.19
2022-09-01T14:10:01.283Z,101862.44
2022-09-01T14:12:30.406Z,101864.19
2022-09-01T14:15:16.502Z,101858.41
2022-09-01T14:17:46.024Z,101855.88
2022-09-01T14:20:16.284Z,101859.09
2022-09-01T14:22:43.279Z,101863.28
2022-09-01T14:25:10.983Z,101861.97
2022-09-01T14:27:38.473Z,101853.66
2022-09-01T14:30:07.724Z,101851.91
2022-09-01T14:32:35.157Z,101845.72
2022-09-01T14:35:02.365Z,101852.31
2022-09-01T14:37:29.463Z,101846.84
2022-09-01T14:39:57.446Z,101843.91
2022-09-01T14:42:29.281Z,101849.72
2022-09-01T14:44:56.539Z,101846.38
2022-09-01T14:47:25.809Z,101844.09
2022-09-01T14:49:53.623Z,101839.06
2022-09-01T14:52:22.235Z,101838.97
2022-09-01T14:54:49.719Z,101837.97
2022-09-01T14:57:37.612Z,101831.06
2022-09-01T15:00:15.151Z,101835.16
2022-09-01T15:02:43.025Z,101833.31
2022-09-01T15:05:11.147Z,101831.69
2022-09-01T15:07:38.650Z,101827.34
2022-09-01T15:10:08.619Z,101827.88
2022-09-01T15:12:35.612Z,101819.72
2022-09-01T15:15:02.489Z,101830.81
2022-09-01T15:17:29.636Z,101832.47
2022-09-01T15:19:56.432Z,101816.59
2022-09-01T15:22:23.152Z,101819.69
2022-09-01T15:24:49.849Z,101823.34
2022-09-01T15:27:16.663Z,101824.16
2022-09-01T15:29:48.115Z,101831.53
2022-09-01T15:32:27.447Z,101819.78
2022-09-01T15:34:55.326Z,101821.00
2022-09-01T15:37:22.067Z,101837.34
2022-09-01T15:39:48.850Z,101826.09
2022-09-01T15:42:17.545Z,101814.13
2022-09-01T15:44:44.489Z,101817.09
2022-09-01T15:47:11.319Z,101799.34
2022-09-01T15:49:38.079Z,101807.81
2022-09-01T15:52:04.841Z,101811.50
2022-09-01T15:54:31.729Z,101801.72
2022-09-01T15:56:58.597Z,101801.63
2022-09-01T15:59:25.378Z,101799.53
2022-09-01T16:01:54.565Z,101804.34
2022-09-01T16:04:27.552Z,101810.75
2022-09-01T16:06:56.706Z,101804.13
2022-09-01T16:09:23.641Z,101807.38
2022-09-01T16:11:50.646Z,101809.84
2022-09-01T16:14:17.466Z,101806.50
2022-09-01T16:16:48.512Z,101811.03
2022-09-01T16:19:22.718Z,101801.47
2022-09-01T16:21:56.921Z,101809.94
2022-09-01T16:24:24.338Z,101813.94
2022-09-01T16:26:52.467Z,101803.59
2022-09-01T16:29:30.768Z,101803.81
2022-09-01T16:31:57.628Z,101800.91
2022-09-01T16:34:27.805Z,101799.19
2022-09-01T16:37:00.782Z,101804.69
2022-09-01T16:39:39.177Z,101799.06
2022-09-01T16:42:22.924Z,101802.88
2022-09-01T16:45:01.942Z,101796.00
2022-09-01T16:47:44.369Z,101801.84
2022-09-01T16:50:20.967Z,101795.16
2022-09-01T16:53:14.193Z,101801.84
2022-09-01T16:56:10.998Z,101802.91
2022-09-01T16:58:44.817Z,101804.00
2022-09-01T17:01:36.834Z,101795.34
2022-09-01T17:04:22.427Z,101803.78
2022-09-01T17:06:57.582Z,101800.09
2022-09-01T17:09:54.193Z,101799.31
2022-09-01T17:12:47.051Z,101806.69
2022-09-01T17:15:22.623Z,101798.06
2022-09-01T17:18:10.217Z,101802.91
2022-09-01T17:20:57.999Z,101798.72
2022-09-01T17:23:28.437Z,101811.72
2022-09-01T17:25:59.069Z,101798.63
2022-09-01T17:28:38.798Z,101807.16
2022-09-01T17:31:17.856Z,101813.72
2022-09-01T17:33:47.521Z,101815.91
2022-09-01T17:36:52.813Z,101820.81
2022-09-01T17:39:57.067Z,101823.19
2022-09-01T17:42:27.611Z,101834.69
2022-09-01T17:44:59.757Z,101826.22
2022-09-01T17:47:44.778Z,101827.63
2022-09-01T17:50:50.248Z,101828.25
2022-09-01T17:53:35.343Z,101831.41
2022-09-01T17:56:09.228Z,101835.59
2022-09-01T17:58:42.460Z,101833.41
2022-09-01T18:01:19.349Z,101829.44
2022-09-01T18:04:24.232Z,101843.16
2022-09-01T18:06:56.735Z,101847.34
2022-09-01T18:09:26.065Z,101845.94
2022-09-01T18:12:05.325Z,101846.34
2022-09-01T18:14:40.115Z,101852.09
2022-09-01T18:17:19.363Z,101848.94
2022-09-01T18:19:48.737Z,101853.97
2022-09-01T18:22:19.292Z,101840.94
2022-09-01T18:24:54.880Z,101851.03
2022-09-01T18:27:24.663Z,101852.47
2022-09-01T18:29:53.023Z,101850.06
2022-09-01T18:32:38.592Z,101855.66
2022-09-01T18:35:26.619Z,101865.88
2022-09-01T18:37:59.330Z,101863.56
2022-09-01T18:40:34.069Z,101877.50
2022-09-01T18:43:31.059Z,101871.44
2022-09-01T18:46:20.956Z,101876.44
2022-09-01T18:48:56.949Z,101875.03
2022-09-01T18:51:30.346Z,101879.75
2022-09-01T18:54:02.785Z,101875.59
2022-09-01T18:57:01.916Z,101875.97
2022-09-01T18:59:48.678Z,101886.22
2022-09-01T19:02:51.169Z,101879.47
2022-09-01T19:05:46.174Z,101883.38
2022-09-01T19:08:42.734Z,101891.69
2022-09-01T19:11:30.751Z,101877.69
2022-09-01T19:14:16.665Z,101882.63
2022-09-01T19:17:08.890Z,101881.03
2022-09-01T19:19:45.380Z,101886.78
2022-09-01T19:22:21.680Z,101883.50
2022-09-01T19:25:15.956Z,101887.34
2022-09-01T19:27:42.750Z,101894.78
2022-09-01T19:30:12.641Z,101886.09
2022-09-01T19:32:39.436Z,101886.28
2022-09-01T19:35:15.850Z,101889.19
2022-09-01T19:37:44.596Z,101892.97
2022-09-01T19:40:11.758Z,101891.44
2022-09-01T19:43:17.832Z,101891.66
2022-09-01T19:45:59.093Z,101894.69
2022-09-01T19:48:38.910Z,101891.31
2022-09-01T19:51:14.035Z,101900.53
2022-09-01T19:53:59.026Z,101902.41
2022-09-01T19:56:28.666Z,101895.31
2022-09-01T19:59:14.230Z,101898.28
2022-09-01T20:01:44.047Z,101894.03
2022-09-01T20:04:21.441Z,101898.69
2022-09-01T20:06:51.344Z,101895.31
2022-09-01T20:09:29.270Z,101900.75
2022-09-01T20:12:09.124Z,101903.66
2022-09-01T20:15:01.054Z,101907.34
2022-09-01T20:18:03.765Z,101900.41
2022-09-01T20:20:38.150Z,101903.41
2022-09-01T20:23:29.389Z,101908.91
2022-09-01T20:26:04.279Z,101901.03
2022-09-01T20:28:55.399Z,101903.78
2022-09-01T20:31:28.817Z,101908.31
2022-09-01T20:34:04.685Z,101897.72
2022-09-01T20:36:38.849Z,101903.03
2022-09-01T20:39:30.460Z,101899.66
2022-09-01T20:42:12.524Z,101909.47
2022-09-01T20:44:52.323Z,101908.84
2022-09-01T20:47:19.446Z,101908.16
2022-09-01T20:49:46.257Z,101904.78
2022-09-01T20:52:26.154Z,101908.50
2022-09-01T20:55:08.071Z,101905.03
2022-09-01T20:57:48.483Z,101907.72
2022-09-01T21:00:23.085Z,101909.59
2022-09-01T21:03:05.475Z,101901.53
2022-09-01T21:05:41.209Z,101904.34
2022-09-01T21:08:14.701Z,101907.22
2022-09-01T21:10:48.565Z,101905.56
2022-09-01T21:13:26.715Z,101905.66
2022-09-01T21:16:04.950Z,101911.19
2022-09-01T21:18:46.892Z,101909.41
2022-09-01T21:21:45.612Z,101910.47
2022-09-01T21:24:12.381Z,101905.22
2022-09-01T21:26:40.382Z,101911.56
2022-09-01T21:29:26.707Z,101909.88
2022-09-01T21:31:53.488Z,101904.69
2022-09-01T21:34:20.236Z,101905.81
2022-09-01T21:36:46.956Z,101911.19
2022-09-01T21:39:14.779Z,101913.06
2022-09-01T21:41:41.583Z,101905.03
2022-09-01T21:44:09.189Z,101905.16
2022-09-01T21:46:35.973Z,101913.38
2022-09-01T21:49:02.680Z,101912.50
2022-09-01T21:51:29.466Z,101913.38
2022-09-01T21:53:56.203Z,101907.19
2022-09-01T21:56:25.877Z,101911.56
2022-09-01T21:58:53.133Z,101910.66
2022-09-01T22:01:19.934Z,101909.09
2022-09-01T22:03:46.680Z,101914.44
2022-09-01T22:06:13.560Z,101917.25
2022-09-01T22:08:40.305Z,101909.28
2022-09-01T22:11:10.005Z,101909.34
2022-09-01T22:13:36.940Z,101903.19
2022-09-01T22:16:03.897Z,101904.00
2022-09-01T22:18:30.695Z,101911.22
2022-09-01T22:21:02.601Z,101905.78
2022-09-01T22:23:29.435Z,101906.66
2022-09-01T22:25:56.149Z,101896.94
2022-09-01T22:28:22.861Z,101902.59
2022-09-01T22:30:53.700Z,101907.16
2022-09-01T22:33:22.905Z,101900.00
2022-09-01T22:35:54.257Z,101896.59
2022-09-01T22:38:22.012Z,101899.22
2022-09-01T22:40:55.611Z,101900.28
2022-09-01T22:43:24.230Z,101899.59
2022-09-01T22:45:51.744Z,101905.09
2022-09-01T22:48:20.135Z,101899.81
2022-09-01T22:50:47.795Z,101903.44
2022-09-01T22:53:15.653Z,101899.03
2022-09-01T22:55:45.350Z,101892.94
2022-09-01T22:58:12.518Z,101902.91
2022-09-01T23:00:44.242Z,101898.56
2022-09-01T23:03:11.049Z,101906.66
2022-09-01T23:05:37.769Z,101896.94
2022-09-01T23:08:04.500Z,101896.06
2022-09-01T23:10:31.603Z,101900.66
2022-09-01T23:12:58.463Z,101893.69
2022-09-01T23:15:25.286Z,101892.81
2022-09-01T23:17:52.027Z,101898.22
2022-09-01T23:20:19.062Z,101898.28
2022-09-01T23:22:46.220Z,101891.09
2022-09-01T23:25:14.998Z,101897.31
2022-09-01T23:27:42.006Z,101890.28
2022-09-01T23:30:11.057Z,101889.41
2022-09-01T23:32:38.158Z,101895.81
2022-09-01T23:35:05.614Z,101897.63
2022-09-01T23:37:32.292Z,101886.97
2022-09-01T23:39:58.988Z,101889.78
2022-09-01T23:42:25.723Z,101887.09
2022-09-01T23:44:52.414Z,101880.00
2022-09-01T23:47:19.747Z,101877.38
2022-09-01T23:49:46.443Z,101883.41
2022-09-01T23:52:13.178Z,101875.56
2022-09-01T23:54:40.003Z,101875.63
2022-09-01T23:57:06.784Z,101883.63
2022-09-01T23:59:33.516Z,101885.50
